createdAt,value
2022-07-26T00:01:45.183Z,3.12
2022-07-26T00:04:19.836Z,4.05
2022-07-26T00:07:03.566Z,5.72
2022-07-26T00:09:34.519Z,3.50
2022-07-26T00:12:06.421Z,4.00
2022-07-26T00:14:38.243Z,4.33
2022-07-26T00:17:11.213Z,4.62
2022-07-26T00:19:42.653Z,3.67
2022-07-26T00:22:27.313Z,3.65
2022-07-26T00:24:58.719Z,4.15
2022-07-26T00:27:30.238Z,3.00
2022-07-26T00:30:01.379Z,4.53
2022-07-26T00:32:33.063Z,5.45
2022-07-26T00:35:04.509Z,5.03
2022-07-26T00:37:35.926Z,4.17
2022-07-26T00:40:07.895Z,4.72
2022-07-26T00:42:40.432Z,4.17
2022-07-26T00:45:13.564Z,2.52
2022-07-26T00:47:45.337Z,4.12
2022-07-26T00:50:18.627Z,5.60
2022-07-26T00:52:51.178Z,4.15
2022-07-26T00:55:22.336Z,4.78
2022-07-26T00:57:53.750Z,4.92
2022-07-26T01:00:30.069Z,7.85
2022-07-26T01:03:01.349Z,6.37
2022-07-26T01:05:33.310Z,5.65
2022-07-26T01:08:05.111Z,7.17
2022-07-26T01:10:38.001Z,4.65
2022-07-26T01:13:08.940Z,4.47
2022-07-26T01:15:41.824Z,3.90
2022-07-26T01:18:12.880Z,5.53
2022-07-26T01:20:45.395Z,4.22
2022-07-26T01:23:16.610Z,4.80
2022-07-26T01:25:48.590Z,5.35
2022-07-26T01:28:20.481Z,6.17
2022-07-26T01:30:52.275Z,5.80
2022-07-26T01:33:23.612Z,6.47
2022-07-26T01:35:54.659Z,5.05
2022-07-26T01:38:26.374Z,5.10
2022-07-26T01:40:57.474Z,3.92
2022-07-26T01:43:28.555Z,6.45
2022-07-26T01:46:00.247Z,5.78
2022-07-26T01:48:32.007Z,5.40
2022-07-26T01:51:03.902Z,6.12
2022-07-26T01:53:35.018Z,6.87
2022-07-26T01:56:06.424Z,5.15
2022-07-26T01:58:37.567Z,6.08
2022-07-26T02:01:09.629Z,5.97
2022-07-26T02:03:42.388Z,5.25
2022-07-26T02:06:13.555Z,4.15
2022-07-26T02:08:46.182Z,7.75
2022-07-26T02:11:18.091Z,6.47
2022-07-26T02:13:53.140Z,6.37
2022-07-26T02:16:23.718Z,4.37
2022-07-26T02:18:55.393Z,4.58
2022-07-26T02:21:26.422Z,7.00
2022-07-26T02:23:57.506Z,5.40
2022-07-26T02:26:28.667Z,4.28
2022-07-26T02:28:59.947Z,5.40
2022-07-26T02:31:32.242Z,4.20
2022-07-26T02:34:03.520Z,5.67
2022-07-26T02:36:34.850Z,6.60
2022-07-26T02:39:07.948Z,7.55
2022-07-26T02:41:39.004Z,6.72
2022-07-26T02:44:11.535Z,6.08
2022-07-26T02:46:43.039Z,4.12
2022-07-26T02:49:14.496Z,4.95
2022-07-26T02:51:45.638Z,6.97
2022-07-26T02:54:17.022Z,5.40
2022-07-26T02:56:48.063Z,5.22
2022-07-26T02:59:22.026Z,5.67
2022-07-26T03:01:53.083Z,5.45
2022-07-26T03:04:24.263Z,5.15
2022-07-26T03:06:55.303Z,4.67
2022-07-26T03:09:26.459Z,6.30
2022-07-26T03:11:57.946Z,8.25
2022-07-26T03:14:30.360Z,6.42
2022-07-26T03:17:02.909Z,5.78
2022-07-26T03:19:33.861Z,4.28
2022-07-26T03:22:05.033Z,4.95
2022-07-26T03:24:36.510Z,4.80
2022-07-26T03:27:07.576Z,5.30
2022-07-26T03:29:38.776Z,5.60
2022-07-26T03:32:10.511Z,4.72
2022-07-26T03:34:41.565Z,4.90
2022-07-26T03:37:13.038Z,4.97
2022-07-26T03:39:43.969Z,5.62
2022-07-26T03:42:15.153Z,7.40
2022-07-26T03:44:45.994Z,7.92
2022-07-26T03:47:16.974Z,6.85
2022-07-26T03:49:48.105Z,4.25
2022-07-26T03:52:19.666Z,7.37
2022-07-26T03:54:50.736Z,6.15
2022-07-26T03:57:21.751Z,5.60
2022-07-26T03:59:52.793Z,4.00
2022-07-26T04:02:25.640Z,3.87
2022-07-26T04:04:56.730Z,6.62
2022-07-26T04:07:27.944Z,4.17
2022-07-26T04:09:58.994Z,6.10
2022-07-26T04:12:30.299Z,6.55
2022-07-26T04:15:01.450Z,4.47
2022-07-26T04:17:34.956Z,6.42
2022-07-26T04:20:07.444Z,4.70
2022-07-26T04:22:39.659Z,6.40
2022-07-26T04:25:12.143Z,6.70
2022-07-26T04:27:43.104Z,7.03
2022-07-26T04:30:15.752Z,5.42
2022-07-26T04:32:48.040Z,5.97
2022-07-26T04:35:19.408Z,6.62
2022-07-26T04:37:50.587Z,6.85
2022-07-26T04:40:24.039Z,7.15
2022-07-26T04:42:55.083Z,7.22
2022-07-26T04:45:26.437Z,7.25
2022-07-26T04:47:57.554Z,7.42
2022-07-26T04:50:28.879Z,8.45
2022-07-26T04:53:00.117Z,8.43
2022-07-26T04:55:31.624Z,10.18
2022-07-26T04:58:02.769Z,9.50
2022-07-26T05:00:35.088Z,9.68
2022-07-26T05:03:07.088Z,10.38
2022-07-26T05:05:38.247Z,10.15
2022-07-26T05:08:09.355Z,9.98
2022-07-26T05:10:40.910Z,9.90
2022-07-26T05:13:12.137Z,9.85
2022-07-26T05:15:44.106Z,9.83
2022-07-26T05:18:16.102Z,11.28
2022-07-26T05:20:47.290Z,10.43
2022-07-26T05:23:20.022Z,10.93
2022-07-26T05:25:51.682Z,10.32
2022-07-26T05:28:24.582Z,11.85
2022-07-26T05:30:56.062Z,11.10
2022-07-26T05:33:28.944Z,11.57
2022-07-26T05:36:00.429Z,11.45
2022-07-26T05:38:31.688Z,11.97
2022-07-26T05:41:03.146Z,11.38
2022-07-26T05:43:40.830Z,10.78
2022-07-26T05:46:09.759Z,11.00
2022-07-26T05:48:44.061Z,10.88
2022-07-26T05:51:16.074Z,10.58
2022-07-26T05:53:47.506Z,10.18
2022-07-26T05:56:18.480Z,10.50
2022-07-26T05:58:49.550Z,9.45
2022-07-26T06:01:20.556Z,9.48
2022-07-26T06:03:51.643Z,8.85
2022-07-26T06:06:24.036Z,8.85
2022-07-26T06:08:56.536Z,9.15
2022-07-26T06:11:27.499Z,9.93
2022-07-26T06:13:58.665Z,8.70
2022-07-26T06:16:29.831Z,10.00
2022-07-26T06:19:01.073Z,8.15
2022-07-26T06:21:33.366Z,8.90
2022-07-26T06:24:04.537Z,8.25
2022-07-26T06:26:35.623Z,8.08
2022-07-26T06:29:07.164Z,8.33
2022-07-26T06:31:38.327Z,7.20
2022-07-26T06:34:10.079Z,6.70
2022-07-26T06:36:41.580Z,7.08
2022-07-26T06:39:12.815Z,5.70
2022-07-26T06:41:43.777Z,6.28
2022-07-26T06:44:16.647Z,6.08
2022-07-26T06:46:47.677Z,6.05
2022-07-26T06:49:22.475Z,8.05
2022-07-26T06:51:51.518Z,5.47
2022-07-26T06:54:23.683Z,5.47
2022-07-26T06:56:54.514Z,5.47
2022-07-26T06:59:25.787Z,5.80
2022-07-26T07:02:00.803Z,5.00
2022-07-26T07:04:33.315Z,5.03
2022-07-26T07:07:06.659Z,11.85
2022-07-26T07:09:39.147Z,6.53
2022-07-26T07:12:10.971Z,5.37
2022-07-26T07:14:42.462Z,6.85
2022-07-26T07:17:18.457Z,4.75
2022-07-26T07:19:46.220Z,5.12
2022-07-26T07:22:18.172Z,5.20
2022-07-26T07:24:49.669Z,6.67
2022-07-26T07:27:20.896Z,5.25
2022-07-26T07:29:55.709Z,5.43
2022-07-26T07:32:27.210Z,5.05
2022-07-26T07:34:59.713Z,7.25
2022-07-26T07:37:52.942Z,5.50
2022-07-26T07:40:04.953Z,4.55
2022-07-26T07:42:36.439Z,7.12
2022-07-26T07:45:09.820Z,6.03
2022-07-26T07:47:42.711Z,4.53
2022-07-26T07:50:14.032Z,4.85
2022-07-26T07:52:45.359Z,8.83
2022-07-26T07:55:36.609Z,5.75
2022-07-26T07:57:50.205Z,4.03
2022-07-26T08:00:27.052Z,4.47
2022-07-26T08:02:55.498Z,5.35
2022-07-26T08:05:27.209Z,6.40
2022-07-26T08:07:58.422Z,7.55
2022-07-26T08:10:29.826Z,4.85
2022-07-26T08:13:03.317Z,7.72
2022-07-26T08:15:34.668Z,12.20
2022-07-26T08:18:08.736Z,7.37
2022-07-26T08:20:39.847Z,8.50
2022-07-26T08:23:11.934Z,8.10
2022-07-26T08:25:55.602Z,13.58
2022-07-26T08:28:37.604Z,10.50
2022-07-26T08:30:57.811Z,6.80
2022-07-26T08:33:30.357Z,8.73
2022-07-26T08:36:12.243Z,5.87
2022-07-26T08:38:48.124Z,6.12
2022-07-26T08:41:24.812Z,7.20
2022-07-26T08:43:55.888Z,6.17
2022-07-26T08:46:32.748Z,5.20
2022-07-26T08:49:04.391Z,3.95
2022-07-26T08:51:38.732Z,13.20
2022-07-26T08:54:12.064Z,6.65
2022-07-26T08:56:55.108Z,7.10
2022-07-26T08:59:30.995Z,4.97
2022-07-26T09:02:08.215Z,5.60
2022-07-26T09:04:49.919Z,4.22
2022-07-26T09:07:21.693Z,6.28
2022-07-26T09:10:08.612Z,3.02
2022-07-26T09:12:44.461Z,5.85
2022-07-26T09:15:24.994Z,6.10
2022-07-26T09:17:58.925Z,4.17
2022-07-26T09:20:32.463Z,5.50
2022-07-26T09:23:08.896Z,3.95
2022-07-26T09:25:42.928Z,4.22
2022-07-26T09:28:29.943Z,4.17
2022-07-26T09:31:05.970Z,3.25
2022-07-26T09:33:47.826Z,4.35
2022-07-26T09:36:22.219Z,4.05
2022-07-26T09:38:58.440Z,3.47
2022-07-26T09:41:32.433Z,4.12
2022-07-26T09:44:06.378Z,5.15
2022-07-26T09:46:40.695Z,4.42
2022-07-26T09:49:23.139Z,5.58
2022-07-26T09:51:56.068Z,4.97
2022-07-26T09:54:37.527Z,5.65
2022-07-26T09:57:12.195Z,4.35
2022-07-26T09:59:43.600Z,6.15
2022-07-26T10:02:15.707Z,5.55
2022-07-26T10:04:49.887Z,6.50
2022-07-26T10:07:21.425Z,4.83
2022-07-26T10:09:58.381Z,5.42
2022-07-26T10:12:32.144Z,4.50
2022-07-26T10:15:03.444Z,3.58
2022-07-26T10:17:43.283Z,5.50
2022-07-26T10:20:24.424Z,4.08
2022-07-26T10:22:54.357Z,3.70
2022-07-26T10:25:28.759Z,5.42
2022-07-26T10:28:00.346Z,5.10
2022-07-26T10:30:34.981Z,5.60
2022-07-26T10:33:11.634Z,5.63
2022-07-26T10:35:45.324Z,6.08
2022-07-26T10:38:27.452Z,5.12
2022-07-26T10:41:04.091Z,6.65
2022-07-26T10:43:40.960Z,4.17
2022-07-26T10:46:17.280Z,6.90
2022-07-26T10:49:05.340Z,4.87
2022-07-26T10:51:42.724Z,7.65
2022-07-26T10:54:16.168Z,5.85
2022-07-26T10:56:47.595Z,6.17
2022-07-26T10:59:45.795Z,6.15
2022-07-26T11:01:56.574Z,4.33
2022-07-26T11:04:29.206Z,4.10
2022-07-26T11:07:02.819Z,4.72
2022-07-26T11:09:38.910Z,6.10
2022-07-26T11:12:20.341Z,4.30
2022-07-26T11:14:53.711Z,3.60
2022-07-26T11:17:27.352Z,4.35
2022-07-26T11:19:59.382Z,4.03
2022-07-26T11:22:34.632Z,4.20
2022-07-26T11:27:36.857Z,4.35
2022-07-26T11:30:09.493Z,5.12
2022-07-26T11:32:41.376Z,7.80
2022-07-26T11:35:14.442Z,3.70
2022-07-26T11:38:07.817Z,4.92
2022-07-26T11:40:48.645Z,5.62
2022-07-26T11:43:24.476Z,4.37
2022-07-26T11:46:01.709Z,4.40
